Pagrindinis puslapis
METAR-TAF:

METAR-TAF

Oro uostai :

Odensė, Danija

platuma: 55-29N, ilguma: 010-20E, Aukštis: 17 m

Dabartinis oras

Ataskaita buvo paskelbta 12 valandos ir 32 minutes, ne 15:50 UTC
Vėjas 5 kt iš Šiaurės/Šiaurės Rytų, svyruoja nuo Šiaurės/Šiaurės Vakarų ir Rytų
Temperatūra 17°C
Drėgmė 29%
Slėgis 1029 hPa
Matomumas 10 km arba daugiau
Mažai debesys ne aukštis 2000 ft

METAR: EKOD 291550Z 03005KT 340V080 9999 FEW020 17/M01 Q1029

Laikas: 06:22 (04:22 UTC)

Prognozė

Ataskaita buvo paskelbta 16 valandos ir 28 minutes, ne 11:54 UTC
Prognozė galioja nuo 29 metu 12 UTC su 29 metu 17 UTC
Vėjas 5 kt iš Šiaurės Vakarų
Matomumas 10 km arba daugiau
Mažai debesys ne aukštis 4000 ft

TAF: EKOD 291154Z 2912/2917 32005KT 9999 FEW040

Orai ataskaitas ir orų prognozės (METAR, TAF).

turimą stotys yra geltonos ir raudonos taškus žemėlapyje.

Perkelti pele per norėdami pamatyti stoties vardą.

Tada spustelėkite, norėdami matyti oro stebėjimo ir prognozės.

Norėdami pakeisti žemėlapį: spustelėkite ant žalios mygtukų su juodo kryžiaus žemyn,; žalią mygtuką su brūkšneliu, jei norite nutolinti; arba žalių rodyklių gretimoms žemėlapius.


METAR-TAF: